sensor_id;sensor_type;location;lat;lon;timestamp;temperature;humidity
19947;DHT22;10135;50.702;7.276;2023-11-21T06:02:00;12.50;70.00
19947;DHT22;10135;50.702;7.276;2023-11-21T06:04:00;12.50;69.70
19947;DHT22;10135;50.702;7.276;2023-11-21T06:06:01;12.50;69.90
19947;DHT22;10135;50.702;7.276;2023-11-21T06:08:02;12.50;69.90
19947;DHT22;10135;50.702;7.276;2023-11-21T06:10:03;12.50;69.90
19947;DHT22;10135;50.702;7.276;2023-11-21T06:12:14;12.50;70.00
19947;DHT22;10135;50.702;7.276;2023-11-21T06:14:16;12.50;69.90
19947;DHT22;10135;50.702;7.276;2023-11-21T06:16:18;12.50;69.90
19947;DHT22;10135;50.702;7.276;2023-11-21T06:18:19;12.50;69.90
19947;DHT22;10135;50.702;7.276;2023-11-21T06:20:21;12.50;70.00
19947;DHT22;10135;50.702;7.276;2023-11-21T06:22:22;12.50;70.00
19947;DHT22;10135;50.702;7.276;2023-11-21T06:24:23;12.50;70.00
19947;DHT22;10135;50.702;7.276;2023-11-21T06:26:24;12.50;70.00
19947;DHT22;10135;50.702;7.276;2023-11-21T06:28:26;12.50;70.00
19947;DHT22;10135;50.702;7.276;2023-11-21T06:30:26;12.50;70.00
19947;DHT22;10135;50.702;7.276;2023-11-21T06:32:27;12.40;70.80
19947;DHT22;10135;50.702;7.276;2023-11-21T06:34:29;12.50;70.10
19947;DHT22;10135;50.702;7.276;2023-11-21T06:36:30;12.50;70.10
19947;DHT22;10135;50.702;7.276;2023-11-21T06:38:31;12.50;70.10
19947;DHT22;10135;50.702;7.276;2023-11-21T06:40:32;12.50;70.20
19947;DHT22;10135;50.702;7.276;2023-11-21T06:42:34;12.50;70.20
19947;DHT22;10135;50.702;7.276;2023-11-21T06:44:34;12.50;70.10
19947;DHT22;10135;50.702;7.276;2023-11-21T06:46:36;12.50;70.20
19947;DHT22;10135;50.702;7.276;2023-11-21T06:48:38;12.50;70.10
19947;DHT22;10135;50.702;7.276;2023-11-21T06:50:39;12.50;70.20
19947;DHT22;10135;50.702;7.276;2023-11-21T06:52:40;12.50;70.20
19947;DHT22;10135;50.702;7.276;2023-11-21T06:54:40;12.50;70.20
19947;DHT22;10135;50.702;7.276;2023-11-21T06:56:41;12.50;70.20
19947;DHT22;10135;50.702;7.276;2023-11-21T06:58:41;12.50;70.20
19947;DHT22;10135;50.702;7.276;2023-11-21T07:00:42;12.50;70.20
19947;DHT22;10135;50.702;7.276;2023-11-21T07:02:46;12.50;70.30
19947;DHT22;10135;50.702;7.276;2023-11-21T07:04:47;12.50;70.20
19947;DHT22;10135;50.702;7.276;2023-11-21T07:06:48;12.50;70.20
19947;DHT22;10135;50.702;7.276;2023-11-21T07:08:48;12.50;70.20
19947;DHT22;10135;50.702;7.276;2023-11-21T07:10:49;12.50;70.20
19947;DHT22;10135;50.702;7.276;2023-11-21T07:12:50;12.50;70.20
19947;DHT22;10135;50.702;7.276;2023-11-21T07:14:51;12.50;70.30
19947;DHT22;10135;50.702;7.276;2023-11-21T07:16:52;12.50;70.20
19947;DHT22;10135;50.702;7.276;2023-11-21T07:18:53;12.50;70.40
19947;DHT22;10135;50.702;7.276;2023-11-21T07:20:55;12.50;70.40
19947;DHT22;10135;50.702;7.276;2023-11-21T07:22:55;12.50;70.40
19947;DHT22;10135;50.702;7.276;2023-11-21T07:24:58;12.50;70.30
19947;DHT22;10135;50.702;7.276;2023-11-21T07:26:58;12.50;70.30
19947;DHT22;10135;50.702;7.276;2023-11-21T07:29:00;12.50;70.30
19947;DHT22;10135;50.702;7.276;2023-11-21T07:31:02;12.50;70.30
19947;DHT22;10135;50.702;7.276;2023-11-21T07:33:03;12.50;70.40
19947;DHT22;10135;50.702;7.276;2023-11-21T07:35:04;12.50;70.40
19947;DHT22;10135;50.702;7.276;2023-11-21T07:37:05;12.50;70.40
19947;DHT22;10135;50.702;7.276;2023-11-21T07:39:05;12.50;70.40
19947;DHT22;10135;50.702;7.276;2023-11-21T07:41:07;12.50;70.40
19947;DHT22;10135;50.702;7.276;2023-11-21T07:43:10;12.50;70.40
19947;DHT22;10135;50.702;7.276;2023-11-21T07:45:11;12.50;70.40
19947;DHT22;10135;50.702;7.276;2023-11-21T07:47:12;12.50;70.40
19947;DHT22;10135;50.702;7.276;2023-11-21T07:49:12;12.60;70.60
19947;DHT22;10135;50.702;7.276;2023-11-21T07:51:21;12.50;70.40
19947;DHT22;10135;50.702;7.276;2023-11-21T07:53:22;12.50;70.40
19947;DHT22;10135;50.702;7.276;2023-11-21T07:55:23;12.60;70.60
19947;DHT22;10135;50.702;7.276;2023-11-21T07:57:25;12.60;70.50
19947;DHT22;10135;50.702;7.276;2023-11-21T07:59:26;12.60;70.50
19947;DHT22;10135;50.702;7.276;2023-11-21T08:01:27;12.60;70.60
19947;DHT22;10135;50.702;7.276;2023-11-21T08:03:28;12.60;70.50
19947;DHT22;10135;50.702;7.276;2023-11-21T08:05:32;12.60;70.60
19947;DHT22;10135;50.702;7.276;2023-11-21T08:07:33;12.60;70.60
19947;DHT22;10135;50.702;7.276;2023-11-21T08:09:34;12.60;70.60
19947;DHT22;10135;50.702;7.276;2023-11-21T08:11:35;12.60;70.60
19947;DHT22;10135;50.702;7.276;2023-11-21T08:13:35;12.60;70.60
19947;DHT22;10135;50.702;7.276;2023-11-21T08:15:36;12.60;70.60
19947;DHT22;10135;50.702;7.276;2023-11-21T08:17:38;12.60;70.60
19947;DHT22;10135;50.702;7.276;2023-11-21T08:19:39;12.60;70.60
19947;DHT22;10135;50.702;7.276;2023-11-21T08:21:39;12.70;70.60
19947;DHT22;10135;50.702;7.276;2023-11-21T08:23:40;12.60;70.60
19947;DHT22;10135;50.702;7.276;2023-11-21T08:25:44;12.60;70.70
19947;DHT22;10135;50.702;7.276;2023-11-21T08:27:46;12.60;70.60
19947;DHT22;10135;50.702;7.276;2023-11-21T08:29:46;12.60;70.60
19947;DHT22;10135;50.702;7.276;2023-11-21T08:31:47;12.60;70.60
19947;DHT22;10135;50.702;7.276;2023-11-21T08:33:48;12.60;70.70
19947;DHT22;10135;50.702;7.276;2023-11-21T08:35:48;12.70;70.80
19947;DHT22;10135;50.702;7.276;2023-11-21T08:37:51;12.70;70.80
19947;DHT22;10135;50.702;7.276;2023-11-21T08:39:58;12.70;70.80
19947;DHT22;10135;50.702;7.276;2023-11-21T08:42:00;12.70;70.80
19947;DHT22;10135;50.702;7.276;2023-11-21T08:44:00;12.70;70.80
19947;DHT22;10135;50.702;7.276;2023-11-21T08:46:01;12.70;70.80
19947;DHT22;10135;50.702;7.276;2023-11-21T08:48:02;12.70;70.80
19947;DHT22;10135;50.702;7.276;2023-11-21T08:50:03;12.80;70.80
19947;DHT22;10135;50.702;7.276;2023-11-21T08:52:04;12.70;70.80
19947;DHT22;10135;50.702;7.276;2023-11-21T08:54:05;12.80;70.90
19947;DHT22;10135;50.702;7.276;2023-11-21T08:56:12;12.80;70.80
19947;DHT22;10135;50.702;7.276;2023-11-21T08:58:14;12.80;70.90
19947;DHT22;10135;50.702;7.276;2023-11-21T09:00:15;12.80;70.90
19947;DHT22;10135;50.702;7.276;2023-11-21T09:02:17;12.80;70.80
19947;DHT22;10135;50.702;7.276;2023-11-21T09:04:17;12.80;70.80
19947;DHT22;10135;50.702;7.276;2023-11-21T09:06:18;12.80;70.90
19947;DHT22;10135;50.702;7.276;2023-11-21T09:08:19;12.80;70.90
19947;DHT22;10135;50.702;7.276;2023-11-21T09:10:20;12.90;70.90
19947;DHT22;10135;50.702;7.276;2023-11-21T09:12:21;12.90;70.90
19947;DHT22;10135;50.702;7.276;2023-11-21T09:14:21;12.90;71.00
19947;DHT22;10135;50.702;7.276;2023-11-21T09:16:22;12.90;70.90
19947;DHT22;10135;50.702;7.276;2023-11-21T09:18:23;12.90;71.60
19947;DHT22;10135;50.702;7.276;2023-11-21T09:20:23;13.00;71.60
19947;DHT22;10135;50.702;7.276;2023-11-21T09:22:24;13.00;70.90
19947;DHT22;10135;50.702;7.276;2023-11-21T09:24:30;13.00;70.90
19947;DHT22;10135;50.702;7.276;2023-11-21T09:26:31;13.00;70.90
19947;DHT22;10135;50.702;7.276;2023-11-21T09:28:32;13.00;70.90
19947;DHT22;10135;50.702;7.276;2023-11-21T09:30:33;13.00;70.90
19947;DHT22;10135;50.702;7.276;2023-11-21T09:32:38;13.00;70.80
19947;DHT22;10135;50.702;7.276;2023-11-21T09:34:38;13.00;70.90
19947;DHT22;10135;50.702;7.276;2023-11-21T09:36:39;13.00;70.80
19947;DHT22;10135;50.702;7.276;2023-11-21T09:38:40;13.00;70.90
19947;DHT22;10135;50.702;7.276;2023-11-21T09:40:42;13.00;70.90
19947;DHT22;10135;50.702;7.276;2023-11-21T09:42:55;13.10;70.90
19947;DHT22;10135;50.702;7.276;2023-11-21T09:45:11;13.10;71.10
19947;DHT22;10135;50.702;7.276;2023-11-21T09:47:24;13.10;71.00
19947;DHT22;10135;50.702;7.276;2023-11-21T09:49:26;13.10;70.80
19947;DHT22;10135;50.702;7.276;2023-11-21T09:51:30;13.10;70.90
19947;DHT22;10135;50.702;7.276;2023-11-21T09:53:34;13.10;70.90
19947;DHT22;10135;50.702;7.276;2023-11-21T09:55:35;13.10;70.90
19947;DHT22;10135;50.702;7.276;2023-11-21T09:57:38;13.10;70.90
19947;DHT22;10135;50.702;7.276;2023-11-21T09:59:40;13.10;70.80
19947;DHT22;10135;50.702;7.276;2023-11-21T10:01:42;13.10;70.80
19947;DHT22;10135;50.702;7.276;2023-11-21T10:03:43;13.10;70.90
19947;DHT22;10135;50.702;7.276;2023-11-21T10:05:45;13.10;70.90
19947;DHT22;10135;50.702;7.276;2023-11-21T10:07:50;13.10;70.90
19947;DHT22;10135;50.702;7.276;2023-11-21T10:09:53;13.10;70.90
19947;DHT22;10135;50.702;7.276;2023-11-21T10:11:55;13.10;70.90
19947;DHT22;10135;50.702;7.276;2023-11-21T10:14:00;13.20;70.90
19947;DHT22;10135;50.702;7.276;2023-11-21T10:16:02;13.20;71.00
19947;DHT22;10135;50.702;7.276;2023-11-21T10:18:07;13.20;71.00
19947;DHT22;10135;50.702;7.276;2023-11-21T10:20:11;13.20;71.10
19947;DHT22;10135;50.702;7.276;2023-11-21T10:22:16;13.20;71.10
19947;DHT22;10135;50.702;7.276;2023-11-21T10:24:17;13.20;71.00
19947;DHT22;10135;50.702;7.276;2023-11-21T10:26:18;13.30;71.00
19947;DHT22;10135;50.702;7.276;2023-11-21T10:28:21;13.30;71.00
19947;DHT22;10135;50.702;7.276;2023-11-21T10:30:21;13.30;71.00
19947;DHT22;10135;50.702;7.276;2023-11-21T10:32:28;13.30;71.00
19947;DHT22;10135;50.702;7.276;2023-11-21T10:34:31;13.30;71.00
19947;DHT22;10135;50.702;7.276;2023-11-21T10:36:33;13.30;70.90
19947;DHT22;10135;50.702;7.276;2023-11-21T10:38:42;13.30;70.90
19947;DHT22;10135;50.702;7.276;2023-11-21T10:40:43;13.30;71.20
19947;DHT22;10135;50.702;7.276;2023-11-21T10:42:45;13.30;70.90
19947;DHT22;10135;50.702;7.276;2023-11-21T10:44:46;13.30;70.90
19947;DHT22;10135;50.702;7.276;2023-11-21T10:46:53;13.30;70.90
19947;DHT22;10135;50.702;7.276;2023-11-21T10:48:57;13.40;71.20
19947;DHT22;10135;50.702;7.276;2023-11-21T10:50:58;13.40;71.00
19947;DHT22;10135;50.702;7.276;2023-11-21T10:53:00;13.40;71.00
19947;DHT22;10135;50.702;7.276;2023-11-21T10:55:20;13.40;71.00
19947;DHT22;10135;50.702;7.276;2023-11-21T10:57:25;13.40;71.00
19947;DHT22;10135;50.702;7.276;2023-11-21T10:59:30;13.40;70.80
19947;DHT22;10135;50.702;7.276;2023-11-21T11:01:31;13.40;70.90
19947;DHT22;10135;50.702;7.276;2023-11-21T11:03:32;13.40;70.90
19947;DHT22;10135;50.702;7.276;2023-11-21T11:05:36;13.40;70.80
19947;DHT22;10135;50.702;7.276;2023-11-21T11:10:37;13.50;71.00
19947;DHT22;10135;50.702;7.276;2023-11-21T11:12:56;13.50;71.00
19947;DHT22;10135;50.702;7.276;2023-11-21T11:18:28;13.60;71.00
19947;DHT22;10135;50.702;7.276;2023-11-21T11:21:38;13.60;70.90
19947;DHT22;10135;50.702;7.276;2023-11-21T11:24:10;13.60;71.00
19947;DHT22;10135;50.702;7.276;2023-11-21T11:39:43;13.70;70.90
19947;DHT22;10135;50.702;7.276;2023-11-21T12:06:14;13.80;70.60
19947;DHT22;10135;50.702;7.276;2023-11-21T12:09:05;13.80;70.70
19947;DHT22;10135;50.702;7.276;2023-11-21T12:11:06;13.80;70.50
19947;DHT22;10135;50.702;7.276;2023-11-21T12:13:08;13.80;70.70
19947;DHT22;10135;50.702;7.276;2023-11-21T12:15:11;13.70;70.60
19947;DHT22;10135;50.702;7.276;2023-11-21T12:17:12;13.70;70.60
19947;DHT22;10135;50.702;7.276;2023-11-21T12:19:13;13.70;70.60
19947;DHT22;10135;50.702;7.276;2023-11-21T12:21:14;13.70;70.70
19947;DHT22;10135;50.702;7.276;2023-11-21T12:23:16;13.70;70.60
19947;DHT22;10135;50.702;7.276;2023-11-21T12:25:19;13.80;70.70
19947;DHT22;10135;50.702;7.276;2023-11-21T12:27:21;13.70;70.70
19947;DHT22;10135;50.702;7.276;2023-11-21T12:29:22;13.80;70.70
19947;DHT22;10135;50.702;7.276;2023-11-21T12:31:23;13.70;70.80
19947;DHT22;10135;50.702;7.276;2023-11-21T12:33:24;13.70;70.80
19947;DHT22;10135;50.702;7.276;2023-11-21T12:35:30;13.80;70.80
19947;DHT22;10135;50.702;7.276;2023-11-21T12:37:36;13.80;70.90
19947;DHT22;10135;50.702;7.276;2023-11-21T12:39:39;13.70;70.80
19947;DHT22;10135;50.702;7.276;2023-11-21T12:41:39;13.80;70.80
19947;DHT22;10135;50.702;7.276;2023-11-21T12:43:41;13.80;70.80
19947;DHT22;10135;50.702;7.276;2023-11-21T12:45:41;13.80;70.70
19947;DHT22;10135;50.702;7.276;2023-11-21T12:47:43;13.70;70.70
19947;DHT22;10135;50.702;7.276;2023-11-21T12:49:45;13.70;70.70
19947;DHT22;10135;50.702;7.276;2023-11-21T12:51:46;13.70;70.80
19947;DHT22;10135;50.702;7.276;2023-11-21T12:53:47;13.70;70.80
19947;DHT22;10135;50.702;7.276;2023-11-21T12:55:48;13.80;70.90
19947;DHT22;10135;50.702;7.276;2023-11-21T12:57:53;13.70;70.80
19947;DHT22;10135;50.702;7.276;2023-11-21T12:59:58;13.80;70.90
19947;DHT22;10135;50.702;7.276;2023-11-21T13:01:58;13.80;70.90
19947;DHT22;10135;50.702;7.276;2023-11-21T13:04:07;13.80;70.90
19947;DHT22;10135;50.702;7.276;2023-11-21T13:06:11;13.80;71.00
19947;DHT22;10135;50.702;7.276;2023-11-21T13:08:13;13.80;70.90
19947;DHT22;10135;50.702;7.276;2023-11-21T13:10:14;13.80;70.80
19947;DHT22;10135;50.702;7.276;2023-11-21T13:12:14;13.90;70.80
19947;DHT22;10135;50.702;7.276;2023-11-21T13:14:18;13.90;70.70
19947;DHT22;10135;50.702;7.276;2023-11-21T13:16:19;13.90;70.70
19947;DHT22;10135;50.702;7.276;2023-11-21T13:18:21;13.90;70.80
19947;DHT22;10135;50.702;7.276;2023-11-21T13:20:22;13.90;70.80
19947;DHT22;10135;50.702;7.276;2023-11-21T13:22:22;13.90;70.70
19947;DHT22;10135;50.702;7.276;2023-11-21T13:24:25;13.90;70.70
19947;DHT22;10135;50.702;7.276;2023-11-21T13:26:26;13.90;70.70
19947;DHT22;10135;50.702;7.276;2023-11-21T13:28:27;13.90;70.60
19947;DHT22;10135;50.702;7.276;2023-11-21T13:30:32;13.90;70.60
19947;DHT22;10135;50.702;7.276;2023-11-21T13:32:35;13.90;70.60
19947;DHT22;10135;50.702;7.276;2023-11-21T13:34:36;13.90;70.60
19947;DHT22;10135;50.702;7.276;2023-11-21T13:36:37;13.90;70.60
19947;DHT22;10135;50.702;7.276;2023-11-21T13:38:38;13.90;70.50
19947;DHT22;10135;50.702;7.276;2023-11-21T13:40:46;13.90;70.60
19947;DHT22;10135;50.702;7.276;2023-11-21T13:42:49;13.90;70.60
19947;DHT22;10135;50.702;7.276;2023-11-21T13:44:57;13.90;70.50
19947;DHT22;10135;50.702;7.276;2023-11-21T13:46:57;13.90;70.50
19947;DHT22;10135;50.702;7.276;2023-11-21T13:48:59;13.90;70.50
19947;DHT22;10135;50.702;7.276;2023-11-21T13:51:01;13.90;70.50
19947;DHT22;10135;50.702;7.276;2023-11-21T13:53:10;13.90;70.40
19947;DHT22;10135;50.702;7.276;2023-11-21T13:55:19;13.80;70.50
19947;DHT22;10135;50.702;7.276;2023-11-21T13:57:20;13.80;70.40
19947;DHT22;10135;50.702;7.276;2023-11-21T13:59:21;13.80;70.50
19947;DHT22;10135;50.702;7.276;2023-11-21T14:01:26;13.80;71.10
19947;DHT22;10135;50.702;7.276;2023-11-21T14:03:30;13.80;70.40
19947;DHT22;10135;50.702;7.276;2023-11-21T14:05:43;13.70;70.70
19947;DHT22;10135;50.702;7.276;2023-11-21T14:07:46;13.70;70.40
19947;DHT22;10135;50.702;7.276;2023-11-21T14:09:48;13.70;70.40
19947;DHT22;10135;50.702;7.276;2023-11-21T14:11:54;13.70;70.40
19947;DHT22;10135;50.702;7.276;2023-11-21T14:13:57;13.60;70.50
19947;DHT22;10135;50.702;7.276;2023-11-21T14:15:59;13.70;70.50
19947;DHT22;10135;50.702;7.276;2023-11-21T14:18:02;13.60;70.60
19947;DHT22;10135;50.702;7.276;2023-11-21T14:20:08;13.60;70.50
19947;DHT22;10135;50.702;7.276;2023-11-21T14:22:16;13.60;70.60
19947;DHT22;10135;50.702;7.276;2023-11-21T14:24:18;13.60;70.50
19947;DHT22;10135;50.702;7.276;2023-11-21T14:26:22;13.60;70.60
19947;DHT22;10135;50.702;7.276;2023-11-21T14:28:48;13.60;70.60
19947;DHT22;10135;50.702;7.276;2023-11-21T14:32:05;13.60;70.60
19947;DHT22;10135;50.702;7.276;2023-11-21T14:34:47;13.60;70.60
19947;DHT22;10135;50.702;7.276;2023-11-21T14:37:01;13.60;70.70
19947;DHT22;10135;50.702;7.276;2023-11-21T14:39:34;13.60;70.60
19947;DHT22;10135;50.702;7.276;2023-11-21T14:45:42;13.60;70.80
19947;DHT22;10135;50.702;7.276;2023-11-21T14:48:10;13.50;70.60
19947;DHT22;10135;50.702;7.276;2023-11-21T14:53:59;13.50;70.50
19947;DHT22;10135;50.702;7.276;2023-11-21T15:03:15;13.40;70.60
19947;DHT22;10135;50.702;7.276;2023-11-21T15:05:42;13.40;70.50
19947;DHT22;10135;50.702;7.276;2023-11-21T15:07:54;13.40;70.50
19947;DHT22;10135;50.702;7.276;2023-11-21T15:09:57;13.40;70.60
19947;DHT22;10135;50.702;7.276;2023-11-21T15:11:59;13.40;70.60
19947;DHT22;10135;50.702;7.276;2023-11-21T15:14:20;13.40;70.70
19947;DHT22;10135;50.702;7.276;2023-11-21T15:16:25;13.40;70.60
19947;DHT22;10135;50.702;7.276;2023-11-21T15:18:28;13.30;70.60
19947;DHT22;10135;50.702;7.276;2023-11-21T15:20:29;13.30;70.70
19947;DHT22;10135;50.702;7.276;2023-11-21T15:22:30;13.30;70.70
19947;DHT22;10135;50.702;7.276;2023-11-21T15:24:31;13.30;70.80
19947;DHT22;10135;50.702;7.276;2023-11-21T15:26:32;13.30;70.80
19947;DHT22;10135;50.702;7.276;2023-11-21T15:28:32;13.30;70.80
19947;DHT22;10135;50.702;7.276;2023-11-21T15:30:33;13.30;70.80
19947;DHT22;10135;50.702;7.276;2023-11-21T15:32:37;13.30;70.80
19947;DHT22;10135;50.702;7.276;2023-11-21T15:35:09;13.30;70.80
19947;DHT22;10135;50.702;7.276;2023-11-21T15:37:13;13.30;71.00
19947;DHT22;10135;50.702;7.276;2023-11-21T15:39:57;13.30;70.70
19947;DHT22;10135;50.702;7.276;2023-11-21T15:42:09;13.30;70.90
19947;DHT22;10135;50.702;7.276;2023-11-21T15:44:12;13.30;70.80
19947;DHT22;10135;50.702;7.276;2023-11-21T15:46:40;13.30;70.80
19947;DHT22;10135;50.702;7.276;2023-11-21T15:48:42;13.30;70.80
19947;DHT22;10135;50.702;7.276;2023-11-21T15:50:50;13.30;70.80
19947;DHT22;10135;50.702;7.276;2023-11-21T15:52:52;13.20;71.30
19947;DHT22;10135;50.702;7.276;2023-11-21T15:54:59;13.20;70.90
19947;DHT22;10135;50.702;7.276;2023-11-21T15:57:14;13.30;71.00
19947;DHT22;10135;50.702;7.276;2023-11-21T15:59:18;13.20;70.90
19947;DHT22;10135;50.702;7.276;2023-11-21T16:01:31;13.20;70.80
19947;DHT22;10135;50.702;7.276;2023-11-21T16:03:42;13.20;70.90
19947;DHT22;10135;50.702;7.276;2023-11-21T16:05:46;13.20;70.90
19947;DHT22;10135;50.702;7.276;2023-11-21T16:07:51;13.20;70.90
19947;DHT22;10135;50.702;7.276;2023-11-21T16:10:15;13.20;71.00
19947;DHT22;10135;50.702;7.276;2023-11-21T16:12:16;13.20;71.10
19947;DHT22;10135;50.702;7.276;2023-11-21T16:14:19;13.20;70.90
19947;DHT22;10135;50.702;7.276;2023-11-21T16:16:21;13.20;71.00
19947;DHT22;10135;50.702;7.276;2023-11-21T16:18:22;13.20;71.00
19947;DHT22;10135;50.702;7.276;2023-11-21T16:20:26;13.20;71.00
19947;DHT22;10135;50.702;7.276;2023-11-21T16:22:27;13.20;71.00
19947;DHT22;10135;50.702;7.276;2023-11-21T16:24:28;13.20;71.00
19947;DHT22;10135;50.702;7.276;2023-11-21T16:26:30;13.20;71.00
19947;DHT22;10135;50.702;7.276;2023-11-21T16:28:34;13.20;71.10
19947;DHT22;10135;50.702;7.276;2023-11-21T16:30:41;13.20;71.10
19947;DHT22;10135;50.702;7.276;2023-11-21T16:40:30;13.20;71.30
19947;DHT22;10135;50.702;7.276;2023-11-21T16:46:53;13.20;71.40
19947;DHT22;10135;50.702;7.276;2023-11-21T16:48:57;13.20;71.00
19947;DHT22;10135;50.702;7.276;2023-11-21T16:50:58;13.10;71.10
19947;DHT22;10135;50.702;7.276;2023-11-21T16:53:03;13.10;71.10
19947;DHT22;10135;50.702;7.276;2023-11-21T16:55:06;13.10;71.10
19947;DHT22;10135;50.702;7.276;2023-11-21T16:57:09;13.10;71.20
19947;DHT22;10135;50.702;7.276;2023-11-21T16:59:10;13.10;71.20
19947;DHT22;10135;50.702;7.276;2023-11-21T17:01:11;13.10;71.30
19947;DHT22;10135;50.702;7.276;2023-11-21T17:03:24;13.10;71.30
19947;DHT22;10135;50.702;7.276;2023-11-21T17:05:26;13.10;71.40
19947;DHT22;10135;50.702;7.276;2023-11-21T17:07:27;13.20;71.40
19947;DHT22;10135;50.702;7.276;2023-11-21T17:09:29;13.10;71.30
19947;DHT22;10135;50.702;7.276;2023-11-21T17:11:30;13.10;71.40
19947;DHT22;10135;50.702;7.276;2023-11-21T17:13:30;13.10;71.30
19947;DHT22;10135;50.702;7.276;2023-11-21T17:15:31;13.10;71.30
19947;DHT22;10135;50.702;7.276;2023-11-21T17:17:32;13.10;71.40
19947;DHT22;10135;50.702;7.276;2023-11-21T17:19:34;13.20;71.40
19947;DHT22;10135;50.702;7.276;2023-11-21T17:21:35;13.10;71.40
19947;DHT22;10135;50.702;7.276;2023-11-21T17:23:36;13.10;71.50
19947;DHT22;10135;50.702;7.276;2023-11-21T17:25:37;13.20;71.50
19947;DHT22;10135;50.702;7.276;2023-11-21T17:27:37;13.20;71.60
19947;DHT22;10135;50.702;7.276;2023-11-21T17:29:38;13.20;71.50
19947;DHT22;10135;50.702;7.276;2023-11-21T17:31:39;13.20;71.50
19947;DHT22;10135;50.702;7.276;2023-11-21T17:33:39;13.20;71.60
19947;DHT22;10135;50.702;7.276;2023-11-21T17:35:42;13.10;71.50
19947;DHT22;10135;50.702;7.276;2023-11-21T17:37:43;13.10;72.20
19947;DHT22;10135;50.702;7.276;2023-11-21T17:39:43;13.10;71.60
19947;DHT22;10135;50.702;7.276;2023-11-21T17:41:44;13.20;71.60
19947;DHT22;10135;50.702;7.276;2023-11-21T17:43:45;13.10;71.50
19947;DHT22;10135;50.702;7.276;2023-11-21T17:45:45;13.10;71.60
19947;DHT22;10135;50.702;7.276;2023-11-21T17:47:49;13.10;71.50
19947;DHT22;10135;50.702;7.276;2023-11-21T17:49:49;13.10;71.40
19947;DHT22;10135;50.702;7.276;2023-11-21T17:51:50;13.10;71.50
19947;DHT22;10135;50.702;7.276;2023-11-21T17:53:51;13.10;71.40
19947;DHT22;10135;50.702;7.276;2023-11-21T17:55:58;13.10;71.40
19947;DHT22;10135;50.702;7.276;2023-11-21T17:57:59;13.10;71.40
19947;DHT22;10135;50.702;7.276;2023-11-21T17:59:59;13.10;71.50
19947;DHT22;10135;50.702;7.276;2023-11-21T18:02:00;13.10;71.40
19947;DHT22;10135;50.702;7.276;2023-11-21T18:04:01;13.10;71.30
19947;DHT22;10135;50.702;7.276;2023-11-21T18:06:02;13.10;71.30
19947;DHT22;10135;50.702;7.276;2023-11-21T18:08:03;13.00;71.30
19947;DHT22;10135;50.702;7.276;2023-11-21T18:10:06;13.00;71.30
19947;DHT22;10135;50.702;7.276;2023-11-21T18:12:08;13.00;71.30
19947;DHT22;10135;50.702;7.276;2023-11-21T18:14:09;12.90;71.20
19947;DHT22;10135;50.702;7.276;2023-11-21T18:16:10;12.90;71.10
19947;DHT22;10135;50.702;7.276;2023-11-21T18:18:11;12.90;71.30
19947;DHT22;10135;50.702;7.276;2023-11-21T18:20:12;12.90;71.20
19947;DHT22;10135;50.702;7.276;2023-11-21T18:22:12;12.90;71.30
19947;DHT22;10135;50.702;7.276;2023-11-21T18:24:13;12.80;71.30
19947;DHT22;10135;50.702;7.276;2023-11-21T18:26:17;12.80;72.00
19947;DHT22;10135;50.702;7.276;2023-11-21T18:28:18;12.80;71.20
19947;DHT22;10135;50.702;7.276;2023-11-21T18:30:18;12.80;71.20
19947;DHT22;10135;50.702;7.276;2023-11-21T18:32:19;12.80;71.20
19947;DHT22;10135;50.702;7.276;2023-11-21T18:34:23;12.80;71.10
19947;DHT22;10135;50.702;7.276;2023-11-21T18:36:24;12.70;71.20
19947;DHT22;10135;50.702;7.276;2023-11-21T18:38:25;12.70;71.10
19947;DHT22;10135;50.702;7.276;2023-11-21T18:40:26;12.70;71.10
19947;DHT22;10135;50.702;7.276;2023-11-21T18:42:27;12.70;71.00
19947;DHT22;10135;50.702;7.276;2023-11-21T18:44:29;12.70;71.00
19947;DHT22;10135;50.702;7.276;2023-11-21T18:46:35;12.60;71.00
19947;DHT22;10135;50.702;7.276;2023-11-21T18:48:37;12.60;71.00
19947;DHT22;10135;50.702;7.276;2023-11-21T18:50:37;12.60;71.00
19947;DHT22;10135;50.702;7.276;2023-11-21T18:52:38;12.60;71.00
19947;DHT22;10135;50.702;7.276;2023-11-21T18:54:42;12.60;70.90
19947;DHT22;10135;50.702;7.276;2023-11-21T18:56:43;12.60;71.00
19947;DHT22;10135;50.702;7.276;2023-11-21T18:58:44;12.50;71.00
19947;DHT22;10135;50.702;7.276;2023-11-21T19:00:44;12.50;70.90
19947;DHT22;10135;50.702;7.276;2023-11-21T19:02:45;12.50;70.80
19947;DHT22;10135;50.702;7.276;2023-11-21T19:04:46;12.40;70.60
19947;DHT22;10135;50.702;7.276;2023-11-21T19:06:47;12.40;70.50
19947;DHT22;10135;50.702;7.276;2023-11-21T19:08:48;12.30;70.60
19947;DHT22;10135;50.702;7.276;2023-11-21T19:10:49;12.30;70.50
19947;DHT22;10135;50.702;7.276;2023-11-21T19:12:50;12.20;70.70
19947;DHT22;10135;50.702;7.276;2023-11-21T19:14:51;12.20;70.70
19947;DHT22;10135;50.702;7.276;2023-11-21T19:16:52;12.10;70.50
19947;DHT22;10135;50.702;7.276;2023-11-21T19:18:52;12.10;70.60
19947;DHT22;10135;50.702;7.276;2023-11-21T19:20:53;12.00;70.50
19947;DHT22;10135;50.702;7.276;2023-11-21T19:22:53;12.00;70.50
19947;DHT22;10135;50.702;7.276;2023-11-21T19:24:55;11.90;70.40
19947;DHT22;10135;50.702;7.276;2023-11-21T19:26:56;11.90;70.30
19947;DHT22;10135;50.702;7.276;2023-11-21T19:28:57;11.90;70.30
19947;DHT22;10135;50.702;7.276;2023-11-21T19:30:57;11.80;70.30
19947;DHT22;10135;50.702;7.276;2023-11-21T19:32:59;11.80;70.40
19947;DHT22;10135;50.702;7.276;2023-11-21T19:35:05;11.70;70.40
19947;DHT22;10135;50.702;7.276;2023-11-21T19:37:08;11.70;70.40
19947;DHT22;10135;50.702;7.276;2023-11-21T19:39:10;11.60;70.40
19947;DHT22;10135;50.702;7.276;2023-11-21T19:41:17;11.60;70.20
19947;DHT22;10135;50.702;7.276;2023-11-21T19:43:21;11.60;70.30
19947;DHT22;10135;50.702;7.276;2023-11-21T19:45:22;11.50;70.20
19947;DHT22;10135;50.702;7.276;2023-11-21T19:47:23;11.50;70.20
19947;DHT22;10135;50.702;7.276;2023-11-21T19:49:23;11.50;70.30
19947;DHT22;10135;50.702;7.276;2023-11-21T19:51:24;11.50;70.30
19947;DHT22;10135;50.702;7.276;2023-11-21T19:53:25;11.40;70.20
19947;DHT22;10135;50.702;7.276;2023-11-21T19:55:25;11.40;70.20
19947;DHT22;10135;50.702;7.276;2023-11-21T19:57:26;11.40;70.20
19947;DHT22;10135;50.702;7.276;2023-11-21T19:59:27;11.40;70.20
19947;DHT22;10135;50.702;7.276;2023-11-21T20:01:28;11.30;70.10
19947;DHT22;10135;50.702;7.276;2023-11-21T20:03:28;11.30;70.10
19947;DHT22;10135;50.702;7.276;2023-11-21T20:05:29;11.30;70.10
19947;DHT22;10135;50.702;7.276;2023-11-21T20:07:30;11.20;70.00
19947;DHT22;10135;50.702;7.276;2023-11-21T20:09:33;11.20;70.10
19947;DHT22;10135;50.702;7.276;2023-11-21T20:11:36;11.20;70.10
19947;DHT22;10135;50.702;7.276;2023-11-21T20:13:47;11.20;70.10